This is the latest recevied weather packets stored in our database for station/object VE6EN. If no packets are shown the sender has not sent any weather packets the latest 10 day(s).
| Time | Temp. | Humidity | Pressure | Rain* | Wind** | Luminosity | Snow |
|---|---|---|---|---|---|---|---|
| 1787598603 | 19.44° C | 50% | 1020.6 hPa | 0 mm | - | - | - |
| 1787598002 | 20° C | 49% | 1020.5 hPa | 0 mm | - | - | - |
| 1787597402 | 20° C | 47% | 1020.3 hPa | 0 mm | - | - | - |
| 1787596802 | 20° C | 52% | 1020.4 hPa | 0 mm | - | - | - |
| 1787596202 | 19.44° C | 51% | 1020.3 hPa | 0 mm | - | - | - |
| 1787595602 | 19.44° C | 51% | 1020.2 hPa | 0 mm | - | - | - |
| 1787595003 | 19.44° C | 50% | 1020.2 hPa | 0 mm | - | - | - |
| 1787594402 | 19.44° C | 52% | 1020.2 hPa | 0 mm | - | - | - |
| 1787593802 | 19.44° C | 51% | 1020.1 hPa | 0 mm | - | - | - |
| 1787593202 | 18.89° C | 53% | 1020.2 hPa | 0 mm | - | - | - |
| 1787592603 | 19.44° C | 51% | 1020.2 hPa | 0 mm | - | - | - |
| 1787592003 | 18.89° C | 54% | 1020 hPa | 0 mm | - | - | - |
| 1787591404 | 18.89° C | 51% | 1020 hPa | 0 mm | - | - | - |
| 1787590802 | 18.89° C | 52% | 1020 hPa | 0 mm | - | - | - |
| 1787590203 | 18.89° C | 53% | 1020 hPa | 0 mm | - | - | - |
| 1787589609 | 18.33° C | 54% | 1019.9 hPa | 0 mm | - | - | - |
| 1787589002 | 18.33° C | 55% | 1019.7 hPa | 0 mm | - | - | - |
| 1787588404 | 18.33° C | 56% | 1019.6 hPa | 0 mm | - | - | - |
| 1787587813 | 17.78° C | 58% | 1019.7 hPa | 0 mm | - | - | - |
| 1787586854 | 16.67° C | 61% | 1019.6 hPa | 0 mm | - | - | - |
| 1787585405 | 16.11° C | 62% | 1019.3 hPa | 0 mm | - | - | - |
| 1787583005 | 14.44° C | 67% | 1019 hPa | 0 mm | - | - | - |
| 1787582400 | 14.44° C | 69% | 1018.8 hPa | 0 mm | - | - | - |
| 1787581803 | 13.89° C | 69% | 1018.8 hPa | 0 mm | - | - | - |
| 1787581208 | 13.33° C | 69% | 1018.7 hPa | 0 mm | - | - | - |
* Rain latest hour (hover to see other rain measurements)
** Current wind speed in m/s (hover to see current wind gust speed)